| time (UTC) | temp F | wind direction | speed knots | gust knots | rain 1hr in | rain 24hr in | rain mn in | humidity % | barometer mb |
| 20260505010103 | 66 | 250 | 0.0 | 0.0 | 0.00 | 0.00 | 0.00 | 73 | 1000.2 |
| 20260505004540 | 67 | 250 | 0.0 | 0.0 | 0.00 | 0.00 | 0.00 | 71 | 1000.3 |
| 20260505003044 | 68 | 250 | 0.0 | 0.9 | 0.00 | 0.00 | 0.00 | 69 | 1000.4 |
| 20260505001539 | 68 | 250 | 0.0 | 3.5 | 0.00 | 0.00 | 0.00 | 67 | 1000.3 |
| 20260505000045 | 69 | 227 | 0.9 | 5.2 | 0.00 | 0.00 | 0.00 | 65 | 1000.3 |
| 20260504234537 | 70 | 234 | 0.0 | 5.2 | 0.00 | 0.00 | 0.00 | 63 | 1000.3 |
| 20260504233036 | 70 | 248 | 2.6 | 7.8 | 0.00 | 0.00 | 0.00 | 62 | 1000.2 |
| 20260504231538 | 71 | 244 | 1.7 | 7.0 | 0.00 | 0.00 | 0.00 | 60 | 1000.4 |
| 20260504230041 | 71 | 254 | 3.5 | 11.3 | 0.00 | 0.00 | 0.00 | 57 | 1000.7 |
| 20260504224533 | 72 | 240 | 2.6 | 12.2 | 0.00 | 0.00 | 0.00 | 55 | 1000.7 |
| 20260504223031 | 72 | 240 | 6.1 | 11.3 | 0.00 | 0.00 | 0.00 | 52 | 1000.8 |
| 20260504221542 | 73 | 360 | 4.3 | 10.4 | 0.00 | 0.00 | 0.00 | 51 | 1000.9 |
| 20260504220030 | 74 | 223 | 7.0 | 13.0 | 0.00 | 0.00 | 0.00 | 50 | 1000.8 |
| 20260504214526 | 75 | 240 | 6.1 | 13.0 | 0.00 | 0.00 | 0.00 | 50 | 1000.6 |
| 20260504213030 | 75 | 360 | 6.1 | 23.5 | 0.00 | 0.00 | 0.00 | 50 | 1000.7 |
| 20260504211523 | 76 | 360 | 4.3 | 10.4 | 0.00 | 0.00 | 0.00 | 50 | 1000.5 |
| 20260504210023 | 76 | 360 | 7.0 | 11.3 | 0.00 | 0.00 | 0.00 | 49 | 1000.6 |
| 20260504204522 | 76 | 360 | 6.1 | 9.6 | 0.00 | 0.00 | 0.00 | 52 | 1000.7 |
| 20260504203016 | 76 | 241 | 3.5 | 9.6 | 0.00 | 0.00 | 0.00 | 53 | 1000.7 |
| 20260504201515 | 75 | 232 | 5.2 | 8.7 | 0.00 | 0.00 | 0.00 | 55 | 1001.0 |
| 20260504200012 | 76 | 229 | 2.6 | 7.0 | 0.00 | 0.00 | 0.00 | 56 | 1001.1 |
| 20260504194509 | 75 | 211 | 4.3 | 8.7 | 0.00 | 0.00 | 0.00 | 55 | 1001.4 |
| 20260504193007 | 75 | 201 | 1.7 | 6.1 | 0.00 | 0.00 | 0.00 | 55 | 1001.6 |
| 20260504191504 | 73 | 248 | 4.3 | 8.7 | 0.00 | 0.00 | 0.00 | 57 | 1001.9 |
| 20260504190002 | 74 | 230 | 2.6 | 5.2 | 0.00 | 0.00 | 0.00 | 57 | 1001.9 |
| 20260504184559 | 76 | 360 | 2.6 | 8.7 | 0.00 | 0.00 | 0.00 | 55 | 1001.9 |
| 20260504183056 | 76 | 240 | 2.6 | 7.8 | 0.00 | 0.00 | 0.00 | 57 | 1002.2 |
| 20260504181554 | 75 | 232 | 2.6 | 7.8 | 0.00 | 0.00 | 0.00 | 58 | 1002.3 |
| 20260504180051 | 75 | 229 | 0.9 | 6.1 | 0.00 | 0.00 | 0.00 | 57 | 1002.6 |
| 20260504174547 | 74 | 245 | 0.9 | 5.2 | 0.00 | 0.00 | 0.00 | 59 | 1002.7 |
| 20260504173043 | 73 | 224 | 1.7 | 6.1 | 0.00 | 0.00 | 0.00 | 60 | 1002.9 |
| 20260504171539 | 72 | 224 | 2.6 | 5.2 | 0.00 | 0.00 | 0.00 | 58 | 1003.4 |
| 20260504081512 | 46 | 207 | 0.0 | 0.0 | 0.00 | 0.00 | 0.00 | 85 | 1006.3 |
| 20260504044546 | 46 | 207 | 0.0 | 2.6 | 0.00 | 0.00 | 0.00 | 85 | 1008.8 |
| 20260504043048 | 46 | 207 | 0.0 | 0.0 | 0.00 | 0.00 | 0.00 | 85 | 1008.8 |
| 20260504041543 | 46 | 207 | 0.0 | 0.9 | 0.00 | 0.00 | 0.00 | 85 | 1008.8 |
| 20260504040100 | 46 | 207 | 0.0 | 0.0 | 0.00 | 0.00 | 0.00 | 85 | 1009.0 |
| 20260504034541 | 46 | 207 | 0.0 | 0.0 | 0.00 | 0.00 | 0.00 | 85 | 1009.1 |
| 20260504033039 | 46 | 207 | 0.0 | 1.7 | 0.00 | 0.00 | 0.00 | 85 | 1009.2 |
| 20260504031538 | 46 | 208 | 0.0 | 1.7 | 0.00 | 0.00 | 0.00 | 85 | 1009.3 |
| 20260504030038 | 47 | 210 | 0.0 | 1.7 | 0.00 | 0.00 | 0.00 | 85 | 1009.4 |
| 20260504024536 | 47 | 210 | 0.0 | 0.9 | 0.00 | 0.00 | 0.00 | 85 | 1009.6 |
| 20260504023035 | 47 | 210 | 0.0 | 0.0 | 0.00 | 0.00 | 0.00 | 84 | 1009.7 |
| 20260504021535 | 47 | 207 | 0.0 | 1.7 | 0.00 | 0.00 | 0.00 | 84 | 1009.7 |
| 20260504020034 | 47 | 206 | 0.0 | 0.9 | 0.00 | 0.00 | 0.00 | 84 | 1009.6 |
| 20260504014537 | 48 | 199 | 0.0 | 3.5 | 0.00 | 0.00 | 0.00 | 84 | 1009.6 |
| 20260504013034 | 48 | 202 | 0.0 | 2.6 | 0.00 | 0.00 | 0.00 | 83 | 1009.7 |
| 20260504011532 | 48 | 221 | 0.0 | 0.0 | 0.00 | 0.00 | 0.00 | 82 | 1009.7 |